sensor_id;sensor_type;location;lat;lon;timestamp;P1;durP1;ratioP1;P2;durP2;ratioP2
75696;SDS011;64312;44.738;20.612;2023-03-01T00:00:39;41.85;;;19.02;;
75696;SDS011;64312;44.738;20.612;2023-03-01T00:03:06;38.70;;;19.65;;
75696;SDS011;64312;44.738;20.612;2023-03-01T00:05:32;42.60;;;19.13;;
75696;SDS011;64312;44.738;20.612;2023-03-01T00:07:58;40.72;;;20.67;;
75696;SDS011;64312;44.738;20.612;2023-03-01T00:10:23;56.55;;;21.65;;
75696;SDS011;64312;44.738;20.612;2023-03-01T00:12:49;52.40;;;23.70;;
75696;SDS011;64312;44.738;20.612;2023-03-01T00:15:15;48.65;;;21.10;;
75696;SDS011;64312;44.738;20.612;2023-03-01T00:17:40;44.15;;;19.33;;
75696;SDS011;64312;44.738;20.612;2023-03-01T00:20:06;43.88;;;19.92;;
75696;SDS011;64312;44.738;20.612;2023-03-01T00:22:36;49.03;;;20.38;;
75696;SDS011;64312;44.738;20.612;2023-03-01T00:25:02;45.85;;;21.80;;
75696;SDS011;64312;44.738;20.612;2023-03-01T00:27:29;46.65;;;20.98;;
75696;SDS011;64312;44.738;20.612;2023-03-01T00:29:54;50.28;;;20.98;;
75696;SDS011;64312;44.738;20.612;2023-03-01T00:32:20;50.53;;;21.77;;
75696;SDS011;64312;44.738;20.612;2023-03-01T00:34:46;42.33;;;20.70;;
75696;SDS011;64312;44.738;20.612;2023-03-01T00:37:20;45.50;;;20.25;;
75696;SDS011;64312;44.738;20.612;2023-03-01T00:39:46;47.53;;;22.08;;
75696;SDS011;64312;44.738;20.612;2023-03-01T00:42:12;45.50;;;21.33;;
75696;SDS011;64312;44.738;20.612;2023-03-01T00:44:38;55.60;;;22.52;;
75696;SDS011;64312;44.738;20.612;2023-03-01T00:47:04;55.25;;;21.52;;
75696;SDS011;64312;44.738;20.612;2023-03-01T00:49:30;50.58;;;21.00;;
75696;SDS011;64312;44.738;20.612;2023-03-01T00:51:56;58.60;;;22.98;;
75696;SDS011;64312;44.738;20.612;2023-03-01T00:54:22;55.95;;;22.00;;
75696;SDS011;64312;44.738;20.612;2023-03-01T00:56:48;45.42;;;19.42;;
75696;SDS011;64312;44.738;20.612;2023-03-01T00:59:14;43.72;;;17.88;;
75696;SDS011;64312;44.738;20.612;2023-03-01T01:01:40;41.15;;;17.60;;
75696;SDS011;64312;44.738;20.612;2023-03-01T01:04:07;54.22;;;22.98;;
75696;SDS011;64312;44.738;20.612;2023-03-01T01:06:37;48.70;;;21.13;;
75696;SDS011;64312;44.738;20.612;2023-03-01T01:09:07;45.13;;;19.73;;
75696;SDS011;64312;44.738;20.612;2023-03-01T01:11:49;45.30;;;19.48;;
75696;SDS011;64312;44.738;20.612;2023-03-01T01:14:17;46.07;;;20.07;;
75696;SDS011;64312;44.738;20.612;2023-03-01T01:16:43;41.33;;;18.08;;
75696;SDS011;64312;44.738;20.612;2023-03-01T01:19:13;39.42;;;18.35;;
75696;SDS011;64312;44.738;20.612;2023-03-01T01:21:39;45.17;;;18.52;;
75696;SDS011;64312;44.738;20.612;2023-03-01T01:24:08;40.20;;;18.27;;
75696;SDS011;64312;44.738;20.612;2023-03-01T01:26:34;43.83;;;19.00;;
75696;SDS011;64312;44.738;20.612;2023-03-01T01:29:00;43.60;;;17.50;;
75696;SDS011;64312;44.738;20.612;2023-03-01T01:31:27;40.45;;;17.65;;
75696;SDS011;64312;44.738;20.612;2023-03-01T01:33:54;43.72;;;17.42;;
75696;SDS011;64312;44.738;20.612;2023-03-01T01:36:21;35.50;;;16.98;;
75696;SDS011;64312;44.738;20.612;2023-03-01T01:38:47;41.70;;;18.25;;
75696;SDS011;64312;44.738;20.612;2023-03-01T01:41:12;35.38;;;17.27;;
75696;SDS011;64312;44.738;20.612;2023-03-01T01:43:40;43.47;;;17.90;;
75696;SDS011;64312;44.738;20.612;2023-03-01T01:49:03;33.75;;;16.15;;
75696;SDS011;64312;44.738;20.612;2023-03-01T01:51:42;37.45;;;16.40;;
75696;SDS011;64312;44.738;20.612;2023-03-01T01:54:14;37.47;;;16.90;;
75696;SDS011;64312;44.738;20.612;2023-03-01T01:56:44;38.95;;;18.13;;
75696;SDS011;64312;44.738;20.612;2023-03-01T01:59:14;37.35;;;16.67;;
75696;SDS011;64312;44.738;20.612;2023-03-01T02:01:40;37.85;;;17.02;;
75696;SDS011;64312;44.738;20.612;2023-03-01T02:04:06;35.25;;;15.70;;
75696;SDS011;64312;44.738;20.612;2023-03-01T02:06:33;33.70;;;15.77;;
75696;SDS011;64312;44.738;20.612;2023-03-01T02:09:07;30.80;;;13.90;;
75696;SDS011;64312;44.738;20.612;2023-03-01T02:11:36;26.08;;;12.07;;
75696;SDS011;64312;44.738;20.612;2023-03-01T02:14:03;27.88;;;12.02;;
75696;SDS011;64312;44.738;20.612;2023-03-01T02:16:29;30.08;;;12.75;;
75696;SDS011;64312;44.738;20.612;2023-03-01T02:18:56;21.85;;;10.65;;
75696;SDS011;64312;44.738;20.612;2023-03-01T02:27:01;29.65;;;12.32;;
75696;SDS011;64312;44.738;20.612;2023-03-01T02:29:27;24.48;;;11.90;;
75696;SDS011;64312;44.738;20.612;2023-03-01T02:31:54;20.83;;;10.38;;
75696;SDS011;64312;44.738;20.612;2023-03-01T02:34:24;19.58;;;9.75;;
75696;SDS011;64312;44.738;20.612;2023-03-01T02:36:57;21.10;;;9.82;;
75696;SDS011;64312;44.738;20.612;2023-03-01T02:39:34;18.63;;;8.48;;
75696;SDS011;64312;44.738;20.612;2023-03-01T02:42:08;19.55;;;10.18;;
75696;SDS011;64312;44.738;20.612;2023-03-01T02:44:38;20.85;;;9.57;;
75696;SDS011;64312;44.738;20.612;2023-03-01T02:47:03;19.00;;;9.05;;
75696;SDS011;64312;44.738;20.612;2023-03-01T02:49:31;18.10;;;8.85;;
75696;SDS011;64312;44.738;20.612;2023-03-01T02:54:47;17.88;;;8.27;;
75696;SDS011;64312;44.738;20.612;2023-03-01T02:57:21;19.02;;;8.70;;
75696;SDS011;64312;44.738;20.612;2023-03-01T02:59:48;21.25;;;10.75;;
75696;SDS011;64312;44.738;20.612;2023-03-01T03:02:24;18.95;;;8.70;;
75696;SDS011;64312;44.738;20.612;2023-03-01T03:05:18;20.17;;;9.10;;
75696;SDS011;64312;44.738;20.612;2023-03-01T03:07:47;17.80;;;8.57;;
75696;SDS011;64312;44.738;20.612;2023-03-01T03:10:15;18.10;;;8.95;;
75696;SDS011;64312;44.738;20.612;2023-03-01T03:12:50;18.33;;;8.57;;
75696;SDS011;64312;44.738;20.612;2023-03-01T03:15:17;17.48;;;9.15;;
75696;SDS011;64312;44.738;20.612;2023-03-01T03:17:44;17.90;;;8.88;;
75696;SDS011;64312;44.738;20.612;2023-03-01T03:20:10;16.75;;;7.95;;
75696;SDS011;64312;44.738;20.612;2023-03-01T03:22:38;20.05;;;9.20;;
75696;SDS011;64312;44.738;20.612;2023-03-01T03:25:05;18.70;;;8.82;;
75696;SDS011;64312;44.738;20.612;2023-03-01T03:27:39;15.27;;;8.25;;
75696;SDS011;64312;44.738;20.612;2023-03-01T03:30:06;17.15;;;8.45;;
75696;SDS011;64312;44.738;20.612;2023-03-01T03:32:41;18.13;;;8.40;;
75696;SDS011;64312;44.738;20.612;2023-03-01T03:35:08;19.55;;;9.30;;
75696;SDS011;64312;44.738;20.612;2023-03-01T03:37:35;16.10;;;8.10;;
75696;SDS011;64312;44.738;20.612;2023-03-01T03:40:20;17.48;;;9.13;;
75696;SDS011;64312;44.738;20.612;2023-03-01T03:42:46;16.50;;;8.77;;
75696;SDS011;64312;44.738;20.612;2023-03-01T03:45:12;17.25;;;8.88;;
75696;SDS011;64312;44.738;20.612;2023-03-01T03:47:37;18.17;;;8.85;;
75696;SDS011;64312;44.738;20.612;2023-03-01T03:50:03;16.70;;;8.20;;
75696;SDS011;64312;44.738;20.612;2023-03-01T03:52:29;18.55;;;8.20;;
75696;SDS011;64312;44.738;20.612;2023-03-01T03:54:55;20.92;;;9.50;;
75696;SDS011;64312;44.738;20.612;2023-03-01T03:57:20;17.63;;;8.90;;
75696;SDS011;64312;44.738;20.612;2023-03-01T03:59:46;17.60;;;8.15;;
75696;SDS011;64312;44.738;20.612;2023-03-01T04:02:12;15.50;;;8.20;;
75696;SDS011;64312;44.738;20.612;2023-03-01T04:04:38;16.00;;;8.02;;
75696;SDS011;64312;44.738;20.612;2023-03-01T04:07:03;18.48;;;7.93;;
75696;SDS011;64312;44.738;20.612;2023-03-01T04:09:29;16.98;;;8.45;;
75696;SDS011;64312;44.738;20.612;2023-03-01T04:11:55;14.57;;;7.40;;
75696;SDS011;64312;44.738;20.612;2023-03-01T04:14:21;15.85;;;8.48;;
75696;SDS011;64312;44.738;20.612;2023-03-01T04:16:46;16.23;;;8.43;;
75696;SDS011;64312;44.738;20.612;2023-03-01T04:19:12;16.92;;;8.38;;
75696;SDS011;64312;44.738;20.612;2023-03-01T04:21:40;15.73;;;8.05;;
75696;SDS011;64312;44.738;20.612;2023-03-01T04:24:05;15.27;;;7.88;;
75696;SDS011;64312;44.738;20.612;2023-03-01T04:26:31;17.63;;;8.40;;
75696;SDS011;64312;44.738;20.612;2023-03-01T04:28:57;18.45;;;8.45;;
75696;SDS011;64312;44.738;20.612;2023-03-01T04:31:23;15.30;;;7.78;;
75696;SDS011;64312;44.738;20.612;2023-03-01T04:33:49;15.90;;;8.25;;
75696;SDS011;64312;44.738;20.612;2023-03-01T04:36:24;15.60;;;7.05;;
75696;SDS011;64312;44.738;20.612;2023-03-01T04:38:53;15.65;;;8.32;;
75696;SDS011;64312;44.738;20.612;2023-03-01T04:41:20;17.52;;;8.20;;
75696;SDS011;64312;44.738;20.612;2023-03-01T04:43:48;17.30;;;8.55;;
75696;SDS011;64312;44.738;20.612;2023-03-01T04:46:14;16.48;;;8.32;;
75696;SDS011;64312;44.738;20.612;2023-03-01T04:48:44;16.67;;;7.90;;
75696;SDS011;64312;44.738;20.612;2023-03-01T04:51:10;16.40;;;8.65;;
75696;SDS011;64312;44.738;20.612;2023-03-01T04:53:38;14.68;;;8.10;;
75696;SDS011;64312;44.738;20.612;2023-03-01T04:56:04;16.52;;;8.95;;
75696;SDS011;64312;44.738;20.612;2023-03-01T04:58:30;18.77;;;8.20;;
75696;SDS011;64312;44.738;20.612;2023-03-01T05:00:55;16.67;;;8.65;;
75696;SDS011;64312;44.738;20.612;2023-03-01T05:03:22;17.58;;;8.32;;
75696;SDS011;64312;44.738;20.612;2023-03-01T05:05:49;16.58;;;7.97;;
75696;SDS011;64312;44.738;20.612;2023-03-01T05:08:16;17.20;;;8.52;;
75696;SDS011;64312;44.738;20.612;2023-03-01T05:10:50;18.77;;;8.77;;
75696;SDS011;64312;44.738;20.612;2023-03-01T05:13:18;16.13;;;8.73;;
75696;SDS011;64312;44.738;20.612;2023-03-01T05:15:48;18.80;;;9.80;;
75696;SDS011;64312;44.738;20.612;2023-03-01T05:18:20;17.45;;;9.40;;
75696;SDS011;64312;44.738;20.612;2023-03-01T05:20:45;17.20;;;8.32;;
75696;SDS011;64312;44.738;20.612;2023-03-01T05:23:12;17.63;;;8.65;;
75696;SDS011;64312;44.738;20.612;2023-03-01T05:25:38;19.35;;;8.65;;
75696;SDS011;64312;44.738;20.612;2023-03-01T05:28:06;17.30;;;9.43;;
75696;SDS011;64312;44.738;20.612;2023-03-01T05:30:35;16.90;;;8.80;;
75696;SDS011;64312;44.738;20.612;2023-03-01T05:33:00;20.60;;;10.60;;
75696;SDS011;64312;44.738;20.612;2023-03-01T05:35:27;20.50;;;10.40;;
75696;SDS011;64312;44.738;20.612;2023-03-01T05:37:55;21.88;;;11.40;;
75696;SDS011;64312;44.738;20.612;2023-03-01T05:40:21;24.77;;;11.77;;
75696;SDS011;64312;44.738;20.612;2023-03-01T05:42:52;21.90;;;11.63;;
75696;SDS011;64312;44.738;20.612;2023-03-01T05:45:20;20.38;;;10.98;;
75696;SDS011;64312;44.738;20.612;2023-03-01T05:47:46;22.33;;;11.90;;
75696;SDS011;64312;44.738;20.612;2023-03-01T05:50:15;19.38;;;10.88;;
75696;SDS011;64312;44.738;20.612;2023-03-01T05:52:47;21.13;;;10.80;;
75696;SDS011;64312;44.738;20.612;2023-03-01T05:55:15;19.58;;;10.90;;
75696;SDS011;64312;44.738;20.612;2023-03-01T05:57:42;17.15;;;8.82;;
75696;SDS011;64312;44.738;20.612;2023-03-01T06:00:08;19.70;;;9.25;;
75696;SDS011;64312;44.738;20.612;2023-03-01T06:02:38;19.77;;;9.75;;
75696;SDS011;64312;44.738;20.612;2023-03-01T06:05:05;21.95;;;10.15;;
75696;SDS011;64312;44.738;20.612;2023-03-01T06:07:32;26.80;;;11.32;;
75696;SDS011;64312;44.738;20.612;2023-03-01T06:09:58;26.10;;;12.52;;
75696;SDS011;64312;44.738;20.612;2023-03-01T06:12:24;34.25;;;15.07;;
75696;SDS011;64312;44.738;20.612;2023-03-01T06:14:50;31.38;;;15.65;;
75696;SDS011;64312;44.738;20.612;2023-03-01T06:17:15;31.58;;;15.75;;
75696;SDS011;64312;44.738;20.612;2023-03-01T06:19:41;35.80;;;17.48;;
75696;SDS011;64312;44.738;20.612;2023-03-01T06:22:07;32.17;;;16.20;;
75696;SDS011;64312;44.738;20.612;2023-03-01T06:24:33;31.77;;;16.40;;
75696;SDS011;64312;44.738;20.612;2023-03-01T06:26:59;32.38;;;15.07;;
75696;SDS011;64312;44.738;20.612;2023-03-01T06:29:25;28.90;;;14.43;;
75696;SDS011;64312;44.738;20.612;2023-03-01T06:31:50;26.50;;;13.65;;
75696;SDS011;64312;44.738;20.612;2023-03-01T06:34:16;25.00;;;13.52;;
75696;SDS011;64312;44.738;20.612;2023-03-01T06:36:42;25.05;;;12.52;;
75696;SDS011;64312;44.738;20.612;2023-03-01T06:39:07;27.77;;;13.45;;
75696;SDS011;64312;44.738;20.612;2023-03-01T06:41:33;24.63;;;12.90;;
75696;SDS011;64312;44.738;20.612;2023-03-01T06:43:59;26.90;;;13.63;;
75696;SDS011;64312;44.738;20.612;2023-03-01T06:46:25;30.25;;;14.25;;
75696;SDS011;64312;44.738;20.612;2023-03-01T06:48:50;26.40;;;13.18;;
75696;SDS011;64312;44.738;20.612;2023-03-01T06:51:16;24.45;;;12.35;;
75696;SDS011;64312;44.738;20.612;2023-03-01T06:53:41;21.02;;;9.98;;
75696;SDS011;64312;44.738;20.612;2023-03-01T06:56:07;23.38;;;11.82;;
75696;SDS011;64312;44.738;20.612;2023-03-01T06:58:33;20.98;;;10.32;;
75696;SDS011;64312;44.738;20.612;2023-03-01T07:00:59;20.00;;;10.23;;
75696;SDS011;64312;44.738;20.612;2023-03-01T07:03:24;16.80;;;9.02;;
75696;SDS011;64312;44.738;20.612;2023-03-01T07:05:50;18.75;;;9.55;;
75696;SDS011;64312;44.738;20.612;2023-03-01T07:08:19;20.05;;;9.15;;
75696;SDS011;64312;44.738;20.612;2023-03-01T07:10:45;17.65;;;8.65;;
75696;SDS011;64312;44.738;20.612;2023-03-01T07:13:11;17.67;;;8.63;;
75696;SDS011;64312;44.738;20.612;2023-03-01T07:15:36;13.88;;;7.95;;
75696;SDS011;64312;44.738;20.612;2023-03-01T07:18:02;14.43;;;7.88;;
75696;SDS011;64312;44.738;20.612;2023-03-01T07:20:27;14.68;;;7.88;;
75696;SDS011;64312;44.738;20.612;2023-03-01T07:22:54;17.02;;;8.95;;
75696;SDS011;64312;44.738;20.612;2023-03-01T07:25:20;20.65;;;9.85;;
75696;SDS011;64312;44.738;20.612;2023-03-01T07:27:52;26.92;;;11.10;;
75696;SDS011;64312;44.738;20.612;2023-03-01T07:30:20;31.52;;;13.13;;
75696;SDS011;64312;44.738;20.612;2023-03-01T07:32:46;32.47;;;14.48;;
75696;SDS011;64312;44.738;20.612;2023-03-01T07:35:13;50.13;;;20.63;;
75696;SDS011;64312;44.738;20.612;2023-03-01T07:37:40;35.08;;;17.17;;
75696;SDS011;64312;44.738;20.612;2023-03-01T07:40:06;29.70;;;14.52;;
75696;SDS011;64312;44.738;20.612;2023-03-01T07:42:32;24.55;;;11.45;;
75696;SDS011;64312;44.738;20.612;2023-03-01T07:44:58;19.00;;;10.05;;
75696;SDS011;64312;44.738;20.612;2023-03-01T07:47:23;17.23;;;9.05;;
75696;SDS011;64312;44.738;20.612;2023-03-01T07:49:49;14.60;;;8.57;;
75696;SDS011;64312;44.738;20.612;2023-03-01T07:52:15;16.60;;;8.60;;
75696;SDS011;64312;44.738;20.612;2023-03-01T07:54:42;17.92;;;8.73;;
75696;SDS011;64312;44.738;20.612;2023-03-01T07:57:09;15.95;;;8.70;;
75696;SDS011;64312;44.738;20.612;2023-03-01T07:59:35;14.25;;;8.18;;
75696;SDS011;64312;44.738;20.612;2023-03-01T08:02:01;19.40;;;9.95;;
75696;SDS011;64312;44.738;20.612;2023-03-01T08:04:27;15.57;;;8.40;;
75696;SDS011;64312;44.738;20.612;2023-03-01T08:06:53;14.98;;;7.68;;
75696;SDS011;64312;44.738;20.612;2023-03-01T08:09:20;12.88;;;7.13;;
75696;SDS011;64312;44.738;20.612;2023-03-01T08:11:46;12.73;;;6.60;;
75696;SDS011;64312;44.738;20.612;2023-03-01T08:14:12;10.50;;;5.95;;
75696;SDS011;64312;44.738;20.612;2023-03-01T08:16:37;13.07;;;6.30;;
75696;SDS011;64312;44.738;20.612;2023-03-01T08:19:04;10.05;;;6.22;;
75696;SDS011;64312;44.738;20.612;2023-03-01T08:21:34;8.65;;;5.00;;
75696;SDS011;64312;44.738;20.612;2023-03-01T08:24:03;8.18;;;4.28;;
75696;SDS011;64312;44.738;20.612;2023-03-01T08:26:31;6.72;;;3.83;;
75696;SDS011;64312;44.738;20.612;2023-03-01T08:28:57;6.22;;;4.00;;
75696;SDS011;64312;44.738;20.612;2023-03-01T08:31:24;8.32;;;4.35;;
75696;SDS011;64312;44.738;20.612;2023-03-01T08:33:53;8.93;;;5.95;;
75696;SDS011;64312;44.738;20.612;2023-03-01T08:36:21;6.60;;;4.22;;
75696;SDS011;64312;44.738;20.612;2023-03-01T08:38:55;8.23;;;4.97;;
75696;SDS011;64312;44.738;20.612;2023-03-01T08:41:20;6.22;;;4.40;;
75696;SDS011;64312;44.738;20.612;2023-03-01T08:43:46;6.40;;;3.85;;
75696;SDS011;64312;44.738;20.612;2023-03-01T08:46:12;5.85;;;4.30;;
75696;SDS011;64312;44.738;20.612;2023-03-01T08:48:39;5.82;;;3.33;;
75696;SDS011;64312;44.738;20.612;2023-03-01T08:51:14;6.85;;;3.72;;
75696;SDS011;64312;44.738;20.612;2023-03-01T08:53:43;6.18;;;3.58;;
75696;SDS011;64312;44.738;20.612;2023-03-01T08:56:09;5.63;;;2.85;;
75696;SDS011;64312;44.738;20.612;2023-03-01T08:58:36;5.35;;;2.63;;
75696;SDS011;64312;44.738;20.612;2023-03-01T09:01:09;5.40;;;3.30;;
75696;SDS011;64312;44.738;20.612;2023-03-01T09:03:36;5.95;;;3.28;;
75696;SDS011;64312;44.738;20.612;2023-03-01T09:06:02;4.50;;;2.70;;
75696;SDS011;64312;44.738;20.612;2023-03-01T09:08:30;6.03;;;3.53;;
75696;SDS011;64312;44.738;20.612;2023-03-01T09:10:56;5.65;;;3.92;;
75696;SDS011;64312;44.738;20.612;2023-03-01T09:13:22;5.15;;;2.88;;
75696;SDS011;64312;44.738;20.612;2023-03-01T11:00:47;9.35;;;4.65;;
75696;SDS011;64312;44.738;20.612;2023-03-01T11:03:17;4.93;;;3.20;;
75696;SDS011;64312;44.738;20.612;2023-03-01T11:13:49;4.68;;;3.15;;
75696;SDS011;64312;44.738;20.612;2023-03-01T11:19:00;4.78;;;3.05;;
75696;SDS011;64312;44.738;20.612;2023-03-01T11:21:37;6.85;;;3.97;;
75696;SDS011;64312;44.738;20.612;2023-03-01T11:24:08;12.95;;;6.28;;
75696;SDS011;64312;44.738;20.612;2023-03-01T11:26:38;9.27;;;4.93;;
75696;SDS011;64312;44.738;20.612;2023-03-01T11:29:15;8.65;;;4.60;;
75696;SDS011;64312;44.738;20.612;2023-03-01T11:31:47;9.18;;;5.30;;
75696;SDS011;64312;44.738;20.612;2023-03-01T11:34:16;12.98;;;6.40;;
75696;SDS011;64312;44.738;20.612;2023-03-01T11:39:28;6.85;;;4.65;;
75696;SDS011;64312;44.738;20.612;2023-03-01T11:42:19;9.75;;;4.93;;
75696;SDS011;64312;44.738;20.612;2023-03-01T11:44:51;11.32;;;6.45;;
75696;SDS011;64312;44.738;20.612;2023-03-01T11:55:30;4.13;;;2.90;;
75696;SDS011;64312;44.738;20.612;2023-03-01T12:01:16;5.03;;;2.78;;
75696;SDS011;64312;44.738;20.612;2023-03-01T12:12:18;5.95;;;3.38;;
75696;SDS011;64312;44.738;20.612;2023-03-01T12:20:51;6.25;;;3.85;;
75696;SDS011;64312;44.738;20.612;2023-03-01T12:42:53;5.68;;;3.30;;
75696;SDS011;64312;44.738;20.612;2023-03-01T12:48:17;5.88;;;3.75;;
75696;SDS011;64312;44.738;20.612;2023-03-01T12:50:52;5.65;;;3.95;;
75696;SDS011;64312;44.738;20.612;2023-03-01T12:53:23;6.82;;;3.97;;
75696;SDS011;64312;44.738;20.612;2023-03-01T12:55:51;6.35;;;4.40;;
75696;SDS011;64312;44.738;20.612;2023-03-01T12:58:23;8.80;;;4.95;;
75696;SDS011;64312;44.738;20.612;2023-03-01T13:03:35;6.30;;;3.65;;
75696;SDS011;64312;44.738;20.612;2023-03-01T13:06:25;7.43;;;4.30;;
75696;SDS011;64312;44.738;20.612;2023-03-01T13:08:58;7.18;;;4.40;;
75696;SDS011;64312;44.738;20.612;2023-03-01T13:11:40;7.50;;;4.13;;
75696;SDS011;64312;44.738;20.612;2023-03-01T13:16:45;5.95;;;3.75;;
75696;SDS011;64312;44.738;20.612;2023-03-01T13:19:27;5.00;;;3.30;;
75696;SDS011;64312;44.738;20.612;2023-03-01T13:24:57;5.97;;;3.60;;
75696;SDS011;64312;44.738;20.612;2023-03-01T13:27:27;4.55;;;3.00;;
75696;SDS011;64312;44.738;20.612;2023-03-01T13:29:55;5.57;;;3.40;;
75696;SDS011;64312;44.738;20.612;2023-03-01T13:32:34;6.68;;;3.78;;
75696;SDS011;64312;44.738;20.612;2023-03-01T13:37:40;7.63;;;4.80;;
75696;SDS011;64312;44.738;20.612;2023-03-01T13:42:47;8.25;;;4.65;;
75696;SDS011;64312;44.738;20.612;2023-03-01T13:45:59;6.53;;;4.32;;
75696;SDS011;64312;44.738;20.612;2023-03-01T13:48:11;9.32;;;4.70;;
75696;SDS011;64312;44.738;20.612;2023-03-01T13:50:47;6.15;;;4.05;;
75696;SDS011;64312;44.738;20.612;2023-03-01T13:53:21;8.45;;;4.68;;
75696;SDS011;64312;44.738;20.612;2023-03-01T13:55:51;6.07;;;4.15;;
75696;SDS011;64312;44.738;20.612;2023-03-01T13:58:24;7.30;;;4.28;;
75696;SDS011;64312;44.738;20.612;2023-03-01T14:00:55;7.35;;;4.65;;
75696;SDS011;64312;44.738;20.612;2023-03-01T14:03:22;8.77;;;4.65;;
75696;SDS011;64312;44.738;20.612;2023-03-01T14:05:59;7.70;;;4.68;;
75696;SDS011;64312;44.738;20.612;2023-03-01T14:08:29;8.88;;;5.00;;
75696;SDS011;64312;44.738;20.612;2023-03-01T14:11:03;10.75;;;5.68;;
75696;SDS011;64312;44.738;20.612;2023-03-01T14:19:15;7.40;;;4.60;;
75696;SDS011;64312;44.738;20.612;2023-03-01T14:21:34;6.78;;;4.18;;
75696;SDS011;64312;44.738;20.612;2023-03-01T14:24:01;6.95;;;4.57;;
75696;SDS011;64312;44.738;20.612;2023-03-01T14:26:27;7.82;;;4.38;;
75696;SDS011;64312;44.738;20.612;2023-03-01T14:28:53;6.32;;;4.10;;
75696;SDS011;64312;44.738;20.612;2023-03-01T14:31:32;11.43;;;5.90;;
75696;SDS011;64312;44.738;20.612;2023-03-01T14:34:02;9.80;;;6.38;;
75696;SDS011;64312;44.738;20.612;2023-03-01T14:36:28;9.02;;;5.28;;
75696;SDS011;64312;44.738;20.612;2023-03-01T14:38:55;7.70;;;4.80;;
75696;SDS011;64312;44.738;20.612;2023-03-01T14:41:27;9.15;;;5.82;;
75696;SDS011;64312;44.738;20.612;2023-03-01T14:43:57;8.00;;;5.25;;
75696;SDS011;64312;44.738;20.612;2023-03-01T14:46:28;10.27;;;5.75;;
75696;SDS011;64312;44.738;20.612;2023-03-01T14:49:01;7.20;;;4.72;;
75696;SDS011;64312;44.738;20.612;2023-03-01T14:51:40;7.05;;;4.18;;
75696;SDS011;64312;44.738;20.612;2023-03-01T14:54:18;11.82;;;5.80;;
75696;SDS011;64312;44.738;20.612;2023-03-01T14:56:48;10.13;;;5.85;;
75696;SDS011;64312;44.738;20.612;2023-03-01T14:59:16;7.40;;;4.72;;
75696;SDS011;64312;44.738;20.612;2023-03-01T15:01:46;7.20;;;4.22;;
75696;SDS011;64312;44.738;20.612;2023-03-01T15:04:13;5.45;;;3.67;;
75696;SDS011;64312;44.738;20.612;2023-03-01T15:06:39;8.55;;;5.65;;
75696;SDS011;64312;44.738;20.612;2023-03-01T15:09:06;7.00;;;4.38;;
75696;SDS011;64312;44.738;20.612;2023-03-01T15:11:37;10.20;;;4.40;;
75696;SDS011;64312;44.738;20.612;2023-03-01T15:14:25;7.25;;;4.75;;
75696;SDS011;64312;44.738;20.612;2023-03-01T15:17:03;8.57;;;5.15;;
75696;SDS011;64312;44.738;20.612;2023-03-01T15:19:29;9.73;;;4.82;;
75696;SDS011;64312;44.738;20.612;2023-03-01T15:21:56;8.02;;;4.85;;
75696;SDS011;64312;44.738;20.612;2023-03-01T15:24:25;12.10;;;5.03;;
75696;SDS011;64312;44.738;20.612;2023-03-01T15:26:53;13.43;;;5.55;;
75696;SDS011;64312;44.738;20.612;2023-03-01T15:29:23;11.63;;;5.30;;
75696;SDS011;64312;44.738;20.612;2023-03-01T15:34:30;8.98;;;4.95;;
75696;SDS011;64312;44.738;20.612;2023-03-01T15:37:02;16.38;;;7.28;;
75696;SDS011;64312;44.738;20.612;2023-03-01T15:39:43;15.57;;;7.63;;
75696;SDS011;64312;44.738;20.612;2023-03-01T15:45:07;7.63;;;4.75;;
75696;SDS011;64312;44.738;20.612;2023-03-01T15:47:33;8.70;;;5.00;;
75696;SDS011;64312;44.738;20.612;2023-03-01T15:50:01;13.07;;;7.15;;
75696;SDS011;64312;44.738;20.612;2023-03-01T15:52:35;15.40;;;8.63;;
75696;SDS011;64312;44.738;20.612;2023-03-01T15:55:06;15.50;;;8.00;;
75696;SDS011;64312;44.738;20.612;2023-03-01T15:57:40;14.40;;;7.45;;
75696;SDS011;64312;44.738;20.612;2023-03-01T16:00:08;11.52;;;6.75;;
75696;SDS011;64312;44.738;20.612;2023-03-01T16:02:39;16.20;;;7.13;;
75696;SDS011;64312;44.738;20.612;2023-03-01T16:05:13;28.30;;;10.95;;
75696;SDS011;64312;44.738;20.612;2023-03-01T16:07:46;42.17;;;16.20;;
75696;SDS011;64312;44.738;20.612;2023-03-01T16:10:11;33.65;;;13.90;;
75696;SDS011;64312;44.738;20.612;2023-03-01T16:12:38;24.98;;;10.63;;
75696;SDS011;64312;44.738;20.612;2023-03-01T16:15:04;18.88;;;10.10;;
75696;SDS011;64312;44.738;20.612;2023-03-01T16:20:04;16.95;;;8.00;;
75696;SDS011;64312;44.738;20.612;2023-03-01T16:22:31;20.27;;;9.60;;
75696;SDS011;64312;44.738;20.612;2023-03-01T16:24:56;15.43;;;8.70;;
75696;SDS011;64312;44.738;20.612;2023-03-01T16:27:22;15.40;;;8.57;;
75696;SDS011;64312;44.738;20.612;2023-03-01T16:29:48;14.98;;;8.20;;
75696;SDS011;64312;44.738;20.612;2023-03-01T16:32:13;13.20;;;6.55;;
75696;SDS011;64312;44.738;20.612;2023-03-01T16:34:39;16.20;;;7.88;;
75696;SDS011;64312;44.738;20.612;2023-03-01T16:37:05;11.50;;;6.32;;
75696;SDS011;64312;44.738;20.612;2023-03-01T16:39:30;15.27;;;8.27;;
75696;SDS011;64312;44.738;20.612;2023-03-01T16:41:59;11.35;;;6.45;;
75696;SDS011;64312;44.738;20.612;2023-03-01T16:44:26;14.52;;;7.35;;
75696;SDS011;64312;44.738;20.612;2023-03-01T16:46:51;13.20;;;6.35;;
75696;SDS011;64312;44.738;20.612;2023-03-01T16:49:17;14.20;;;7.05;;
75696;SDS011;64312;44.738;20.612;2023-03-01T16:51:43;14.55;;;6.82;;
75696;SDS011;64312;44.738;20.612;2023-03-01T16:54:09;11.05;;;6.45;;
75696;SDS011;64312;44.738;20.612;2023-03-01T16:56:36;15.07;;;7.50;;
75696;SDS011;64312;44.738;20.612;2023-03-01T16:59:03;11.02;;;6.32;;
75696;SDS011;64312;44.738;20.612;2023-03-01T17:01:30;16.33;;;8.57;;
75696;SDS011;64312;44.738;20.612;2023-03-01T17:04:02;14.25;;;7.68;;
75696;SDS011;64312;44.738;20.612;2023-03-01T17:06:28;19.17;;;9.13;;
75696;SDS011;64312;44.738;20.612;2023-03-01T17:08:54;15.30;;;8.45;;
75696;SDS011;64312;44.738;20.612;2023-03-01T17:11:19;14.30;;;8.07;;
75696;SDS011;64312;44.738;20.612;2023-03-01T17:13:46;16.52;;;8.38;;
75696;SDS011;64312;44.738;20.612;2023-03-01T17:16:14;16.05;;;8.27;;
75696;SDS011;64312;44.738;20.612;2023-03-01T17:18:41;19.92;;;9.15;;
75696;SDS011;64312;44.738;20.612;2023-03-01T17:21:07;15.13;;;6.97;;
75696;SDS011;64312;44.738;20.612;2023-03-01T17:23:34;21.08;;;8.30;;
75696;SDS011;64312;44.738;20.612;2023-03-01T17:26:02;15.68;;;8.27;;
75696;SDS011;64312;44.738;20.612;2023-03-01T17:28:29;23.10;;;9.55;;
75696;SDS011;64312;44.738;20.612;2023-03-01T17:30:57;24.05;;;11.23;;
75696;SDS011;64312;44.738;20.612;2023-03-01T17:33:24;22.25;;;11.50;;
75696;SDS011;64312;44.738;20.612;2023-03-01T17:35:50;23.27;;;10.65;;
75696;SDS011;64312;44.738;20.612;2023-03-01T17:38:16;24.48;;;10.18;;
75696;SDS011;64312;44.738;20.612;2023-03-01T17:40:42;20.35;;;8.95;;
75696;SDS011;64312;44.738;20.612;2023-03-01T17:43:12;17.25;;;8.57;;
75696;SDS011;64312;44.738;20.612;2023-03-01T17:45:38;17.20;;;8.75;;
75696;SDS011;64312;44.738;20.612;2023-03-01T17:48:05;16.08;;;7.75;;
75696;SDS011;64312;44.738;20.612;2023-03-01T17:50:31;12.30;;;6.63;;
75696;SDS011;64312;44.738;20.612;2023-03-01T17:52:57;15.25;;;6.53;;